Terminal Aerodrome Forecast
Issued by NWS

Home | Current Version | Previous Version | Graphics & Text | Print | Product List | Glossary On
Versions: 1 2 3 4 5 6 7 8 9 10 11 12 13 14 15 16 17 18 19 20 21
000
FTUS43 KABR 261722
TAFATY
TAF
KATY 261722Z 2618/2718 30009G15KT P6SM SKC
     FM270100 11008KT P6SM SCT250
     FM270900 12006KT P6SM -SHRA BKN090
     FM271200 06006KT P6SM BKN090
     FM271600 07008KT P6SM -SHRA VCTS BKN060CB=

USA.gov is the U.S. government's official web portal to all federal, state and local government web resources and services.